»·PEaware :: N326MC KSNA-KSAN

N326MC :: KSNA-KSAN

FLIGHT INFORMATION

Flight Status: Arrived
Operator: Privately registered:
United States
More flights under this callsign
Pilot: Anonymous 5456 (5456)
Aircraft: PIPER PA-30 TWIN COMANCHE
(PA30)
More flights by this aircraft type
Origin: KSNA John Wayne-Orange Co
United States
Destination: KSAN San Diego Intl-Lindbergh
United States
More flights between these airports :: More routes between these airports
Route: V23 MZB
File this flight plan on PilotEdge
Remarks: TEC route CSTP31
Altitude:
(Current/Filed)
5,000ft
Speed:
(Current/Filed)
180kts
Departed: 27-Jul-18 09:37 AM
Arrived: 27-Jul-18 10:06 AM
Distance/Time
Traveled:
66nm/0:29
Distance/Time
To Go:
Arrived

Flight Plot

Page will automatically refresh every two minutes.


Map Options




Map Legend


Flown Route
Filed Route
Departure Airport
Arrival Airport
Navaid (VOR, NDB)
Fix

Horizontal Profiles

Position Reports

Time Latitude Longitude Heading Altitude Ground
Speed
27-Jul-18 09:21 33.672352 -117.873053 30 59ft 0kts
27-Jul-18 09:22 33.672352 -117.873053 30 59ft 0kts
27-Jul-18 09:23 33.672352 -117.873053 30 59ft 0kts
27-Jul-18 09:24 33.672353 -117.873053 30 59ft 0kts
27-Jul-18 09:25 33.672353 -117.873053 30 59ft 0kts
27-Jul-18 09:26 33.672353 -117.873053 30 59ft 0kts
27-Jul-18 09:27 33.672353 -117.873053 30 59ft 0kts
27-Jul-18 09:28 33.672353 -117.873053 30 59ft 0kts
27-Jul-18 09:29 33.672353 -117.873053 30 59ft 0kts
27-Jul-18 09:30 33.672353 -117.873053 30 59ft 0kts
27-Jul-18 09:31 33.672353 -117.873053 30 59ft 0kts
27-Jul-18 09:32 33.672353 -117.873053 30 59ft 0kts
27-Jul-18 09:33 33.673183 -117.871922 27 59ft 13kts
27-Jul-18 09:34 33.676269 -117.869965 29 59ft 13kts
27-Jul-18 09:35 33.680188 -117.867664 27 59ft 13kts
27-Jul-18 09:36 33.681244 -117.866538 119 59ft 0kts
27-Jul-18 09:37 33.680842 -117.865701 137 59ft 3kts
27-Jul-18 09:38 33.665444 -117.873803 189 856ft 89kts
27-Jul-18 09:39 33.637148 -117.876813 187 1912ft 115kts
27-Jul-18 09:40 33.605614 -117.880149 186 3026ft 111kts
27-Jul-18 09:41 33.581641 -117.877092 130 3936ft 113kts
27-Jul-18 09:42 33.574319 -117.840352 103 5014ft 117kts
27-Jul-18 09:43 33.554985 -117.792368 139 4969ft 154kts
27-Jul-18 09:44 33.525449 -117.759602 136 4987ft 156kts
27-Jul-18 09:45 33.493812 -117.723800 136 4962ft 163kts
27-Jul-18 09:46 33.461603 -117.685563 137 4965ft 166kts
27-Jul-18 09:47 33.434073 -117.652387 135 4960ft 170kts
27-Jul-18 09:48 33.400969 -117.612264 137 4956ft 171kts
27-Jul-18 09:49 33.367533 -117.571716 137 4949ft 171kts
27-Jul-18 09:50 33.334305 -117.531464 135 4952ft 171kts
27-Jul-18 09:51 33.300941 -117.491170 136 4969ft 171kts
27-Jul-18 09:52 33.267485 -117.450741 136 4960ft 172kts
27-Jul-18 09:53 33.231505 -117.414921 159 4969ft 168kts
27-Jul-18 09:54 33.187603 -117.395845 162 4963ft 169kts
27-Jul-18 09:55 33.143860 -117.377152 160 4970ft 168kts
27-Jul-18 09:56 33.099815 -117.358666 163 4965ft 168kts
27-Jul-18 09:57 33.056670 -117.340590 162 4947ft 170kts
27-Jul-18 09:58 33.012422 -117.321913 160 4943ft 169kts
27-Jul-18 09:59 32.968144 -117.303387 163 4928ft 168kts
27-Jul-18 10:00 32.924520 -117.285173 164 4951ft 168kts
27-Jul-18 10:01 32.881114 -117.266944 162 4940ft 168kts
27-Jul-18 10:02 32.837264 -117.248614 160 4965ft 167kts
27-Jul-18 10:03 32.790195 -117.228969 162 3915ft 185kts
27-Jul-18 10:04 32.758023 -117.188368 102 2577ft 150kts
27-Jul-18 10:05 32.747177 -117.158705 165 1396ft 97kts
27-Jul-18 10:06 32.729830 -117.173703 277 214ft 87kts
27-Jul-18 10:07 32.734198 -117.187946 28 20ft 12kts
27-Jul-18 10:08 32.733817 -117.185964 107 20ft 8kts
27-Jul-18 10:09 32.733244 -117.183570 103 20ft 12kts
27-Jul-18 10:10 32.732635 -117.179278 46 20ft 13kts
27-Jul-18 10:11 32.732410 -117.176650 193 20ft 0kts

Navigation Log

Ident Type
Flight plan parsing failed, navigation log unavailable